Aviation Digital Data Service (ADDS)

Output produced by METARs form (0528 UTC 22 November 2017)
found at http://bcaws.aviationweather.gov/adds/metars/
 
METAR text: KRHV 220447Z 00000KT 10SM FEW070 15/13 A3013
Conditions at: KRHV (SAN JOSE/REID , CA, US) observed 0447 UTC 22 November 2017
Temperature: 15.0°C (59°F)
Dewpoint: 13.0°C (55°F) [RH = 88%]
Pressure (altimeter): 30.13 inches Hg (1020.4 mb)
Winds: calm
Visibility: 10 or more miles (16+ km)
Ceiling: at least 12,000 feet AGL
Clouds: few clouds at 7000 feet AGL
Weather: no significant weather observed at this time